Time;durP1;ratioP1;P1;durP2;ratioP2;P2;SDS_P1;SDS_P2;PMS_P1;PMS_P2;Temp;Humidity;BMP_temperature;BMP_pressure;BME280_temperature;BME280_humidity;BME280_pressure;Samples;Min_cycle;Max_cycle;Signal;HPM_P1;HPM_P2
2022/01/20 00:01:50;;;;;;;10.33;4.50;;;4.10;99.90;;;;;;636284;225;26877;-79
2022/01/20 00:04:24;;;;;;;13.33;4.67;;;4.00;99.90;;;;;;627235;226;26589;-79
2022/01/20 00:07:23;;;;;;;16.17;4.93;;;4.00;99.90;;;;;;625663;226;26606;-81
2022/01/20 00:09:36;;;;;;;17.87;4.83;;;4.00;99.90;;;;;;625259;228;26832;-82
2022/01/20 00:27:08;;;;;;;17.77;4.90;;;4.00;99.90;;;;;;625511;229;26612;-81
2022/01/20 00:29:45;;;;;;;12.93;4.57;;;4.20;99.90;;;;;;628430;226;27237;-81
2022/01/20 00:32:06;;;;;;;12.57;4.80;;;4.20;99.90;;;;;;625700;226;26610;-81
2022/01/20 00:34:52;;;;;;;15.90;4.70;;;4.30;99.90;;;;;;634123;226;26595;-81
2022/01/20 00:39:28;;;;;;;12.43;4.80;;;4.40;99.90;;;;;;626697;228;26615;-81
2022/01/20 00:41:55;;;;;;;10.87;4.70;;;4.50;99.90;;;;;;626104;228;26620;-81
2022/01/20 00:44:22;;;;;;;16.70;5.30;;;4.60;99.90;;;;;;633478;224;26591;-81
2022/01/20 00:46:49;;;;;;;11.73;5.10;;;4.80;99.90;;;;;;631639;225;26950;-81
2022/01/20 00:49:16;;;;;;;16.90;5.47;;;4.50;99.90;;;;;;627165;226;26581;-81
2022/01/20 00:51:44;;;;;;;16.60;6.07;;;4.30;99.90;;;;;;633241;225;26865;-80
2022/01/20 00:54:11;;;;;;;15.07;5.40;;;4.30;99.90;;;;;;635432;225;26802;-80
2022/01/20 00:56:39;;;;;;;19.60;5.63;;;4.10;99.90;;;;;;633262;226;26594;-81
2022/01/20 00:59:06;;;;;;;19.73;5.10;;;4.10;99.90;;;;;;627153;226;26587;-82
2022/01/20 01:01:33;;;;;;;12.57;4.67;;;4.20;99.90;;;;;;632170;225;26592;-82
2022/01/20 01:04:02;;;;;;;18.40;5.40;;;4.10;99.90;;;;;;628141;225;26809;-81
2022/01/20 01:09:01;;;;;;;12.70;3.80;;;4.00;99.90;;;;;;628894;228;26555;-81
2022/01/20 01:11:29;;;;;;;14.20;4.03;;;3.90;99.90;;;;;;629379;225;26649;-81
2022/01/20 01:13:57;;;;;;;15.27;4.43;;;3.90;99.90;;;;;;631089;225;26603;-81
2022/01/20 01:16:34;;;;;;;12.77;3.60;;;3.80;99.90;;;;;;629365;226;26522;-81
2022/01/20 01:21:31;;;;;;;12.20;3.27;;;3.70;99.90;;;;;;625647;228;26627;-81
2022/01/20 01:23:55;;;;;;;8.53;3.37;;;3.70;99.90;;;;;;626988;228;26832;-81
2022/01/20 01:26:25;;;;;;;13.27;3.70;;;3.70;99.90;;;;;;626109;228;26858;-81
2022/01/20 01:28:50;;;;;;;13.50;4.10;;;3.70;99.90;;;;;;627216;227;26612;-81
2022/01/20 01:31:31;;;;;;;10.47;4.10;;;3.70;99.90;;;;;;627656;226;26611;-83
2022/01/20 01:33:54;;;;;;;20.43;5.13;;;3.70;99.90;;;;;;627899;226;26607;-82
2022/01/20 01:36:20;;;;;;;15.10;3.67;;;3.50;99.90;;;;;;632954;225;26619;-81
2022/01/20 01:38:44;;;;;;;11.70;4.00;;;3.50;99.90;;;;;;605615;234;27393;-81
2022/01/20 01:41:13;;;;;;;12.40;4.23;;;3.40;99.90;;;;;;605143;235;26649;-80
2022/01/20 01:43:41;;;;;;;22.20;3.93;;;3.40;99.90;;;;;;604399;236;26660;-81
2022/01/20 01:46:07;;;;;;;12.63;4.30;;;3.40;99.90;;;;;;610304;234;26862;-81
2022/01/20 01:48:34;;;;;;;15.60;4.50;;;3.40;99.90;;;;;;615179;231;26839;-86
2022/01/20 01:51:02;;;;;;;14.70;4.90;;;3.30;99.90;;;;;;606991;235;26598;-81
2022/01/20 01:53:30;;;;;;;13.70;4.30;;;3.30;99.90;;;;;;603993;236;26631;-81
2022/01/20 01:55:58;;;;;;;21.90;4.47;;;3.20;99.90;;;;;;603857;235;26645;-81
2022/01/20 01:58:25;;;;;;;16.33;4.37;;;3.20;99.90;;;;;;606334;235;26889;-81
2022/01/20 02:00:52;;;;;;;10.47;3.57;;;3.20;99.90;;;;;;619210;231;26587;-81
2022/01/20 02:03:19;;;;;;;21.53;3.53;;;3.20;99.90;;;;;;620850;230;27246;-81
2022/01/20 02:06:08;;;;;;;11.20;3.90;;;3.20;99.90;;;;;;615738;233;26852;-82
2022/01/20 02:08:30;;;;;;;11.20;3.97;;;3.20;99.90;;;;;;616212;231;26519;-82
2022/01/20 02:18:44;;;;;;;16.60;3.90;;;3.00;99.90;;;;;;629963;226;26794;-81
2022/01/20 02:21:05;;;;;;;11.93;3.80;;;3.20;99.90;;;;;;632022;226;26599;-81
2022/01/20 02:23:33;;;;;;;12.17;3.50;;;3.20;99.90;;;;;;627047;228;27241;-81
2022/01/20 02:26:00;;;;;;;10.77;3.53;;;3.10;99.90;;;;;;628231;228;26542;-81
2022/01/20 02:28:27;;;;;;;11.20;3.93;;;3.10;99.90;;;;;;634627;225;27264;-81
2022/01/20 02:30:54;;;;;;;10.10;3.87;;;3.10;99.90;;;;;;630288;225;26609;-81
2022/01/20 02:33:21;;;;;;;12.27;3.50;;;3.00;99.90;;;;;;626891;228;26895;-81
2022/01/20 02:35:48;;;;;;;18.60;4.47;;;3.00;99.90;;;;;;625713;228;26535;-81
2022/01/20 02:38:23;;;;;;;14.57;3.83;;;3.00;99.90;;;;;;634250;225;26793;-81
2022/01/20 02:45:59;;;;;;;14.50;3.50;;;3.00;99.90;;;;;;627893;228;26611;-81
2022/01/20 02:48:26;;;;;;;14.73;3.67;;;3.00;99.90;;;;;;626454;226;26568;-81
2022/01/20 02:50:53;;;;;;;10.30;3.27;;;3.10;99.90;;;;;;635946;225;26784;-80
2022/01/20 02:53:20;;;;;;;11.43;3.97;;;3.10;99.90;;;;;;627012;225;26831;-81
2022/01/20 02:55:48;;;;;;;15.47;3.77;;;3.20;99.90;;;;;;625388;229;26551;-81
2022/01/20 02:58:15;;;;;;;11.50;3.33;;;3.10;99.90;;;;;;626080;226;26818;-81
2022/01/20 03:00:43;;;;;;;11.87;3.83;;;3.00;99.90;;;;;;629376;226;26621;-81
2022/01/20 03:03:12;;;;;;;14.13;4.07;;;3.10;99.90;;;;;;625843;228;26551;-81
2022/01/20 03:05:39;;;;;;;13.23;3.83;;;3.10;99.90;;;;;;632985;226;26593;-81
2022/01/20 03:08:06;;;;;;;10.93;3.90;;;3.10;99.90;;;;;;628366;226;26848;-81
2022/01/20 03:10:33;;;;;;;13.83;3.80;;;3.20;99.90;;;;;;627323;227;26567;-81
2022/01/20 03:13:00;;;;;;;13.50;3.67;;;3.10;99.90;;;;;;628455;226;26908;-81
2022/01/20 03:15:27;;;;;;;12.33;3.40;;;3.00;99.90;;;;;;631749;226;26778;-81
2022/01/20 03:17:55;;;;;;;11.33;3.37;;;3.10;99.90;;;;;;628449;226;26812;-81
2022/01/20 03:20:22;;;;;;;8.90;3.07;;;3.10;99.90;;;;;;630385;225;26589;-81
2022/01/20 03:22:49;;;;;;;11.97;3.60;;;3.20;99.90;;;;;;630006;226;26594;-81
2022/01/20 03:25:18;;;;;;;8.83;3.43;;;3.70;99.90;;;;;;630640;226;26580;-82
2022/01/20 03:27:45;;;;;;;11.90;3.83;;;3.70;99.90;;;;;;634414;226;26605;-78
2022/01/20 03:30:12;;;;;;;12.57;3.40;;;3.80;99.90;;;;;;627409;228;26820;-78
2022/01/20 03:32:40;;;;;;;8.97;3.40;;;3.80;99.90;;;;;;628856;228;26535;-78
2022/01/20 03:35:07;;;;;;;11.53;3.70;;;3.50;99.90;;;;;;632518;225;26843;-78
2022/01/20 03:37:34;;;;;;;9.27;3.23;;;3.10;99.90;;;;;;627766;228;26583;-78
2022/01/20 03:40:01;;;;;;;12.10;3.93;;;2.90;99.90;;;;;;631574;226;26835;-78
2022/01/20 03:42:29;;;;;;;9.47;3.83;;;2.80;99.90;;;;;;635375;226;26613;-78
2022/01/20 03:44:56;;;;;;;14.47;4.40;;;2.80;99.90;;;;;;632479;226;26829;-78
2022/01/20 03:47:25;;;;;;;17.23;4.00;;;3.10;99.90;;;;;;628712;228;26590;-78
2022/01/20 03:50:05;;;;;;;11.73;4.07;;;3.10;99.90;;;;;;628633;229;26582;-79
2022/01/20 03:52:20;;;;;;;17.07;3.67;;;3.20;99.90;;;;;;630958;226;26588;-78
2022/01/20 03:54:47;;;;;;;11.33;3.60;;;3.20;99.90;;;;;;632907;226;26562;-78
2022/01/20 03:57:14;;;;;;;13.63;4.03;;;3.30;99.90;;;;;;625932;223;26499;-78
2022/01/20 03:59:41;;;;;;;17.33;4.20;;;3.20;99.90;;;;;;625895;228;26947;-78
2022/01/20 04:02:08;;;;;;;14.03;3.90;;;2.80;99.90;;;;;;625892;228;26580;-78
2022/01/20 04:04:36;;;;;;;14.27;3.53;;;3.40;99.90;;;;;;626098;228;26882;-78
2022/01/20 04:07:03;;;;;;;10.87;4.07;;;3.40;99.90;;;;;;627781;229;26587;-78
2022/01/20 04:09:30;;;;;;;11.77;3.90;;;3.50;99.90;;;;;;629349;226;26823;-78
2022/01/20 04:11:57;;;;;;;12.70;4.10;;;3.50;99.90;;;;;;635090;226;26556;-78
2022/01/20 04:14:27;;;;;;;11.43;3.73;;;3.60;99.90;;;;;;629781;226;26821;-78
2022/01/20 04:17:03;;;;;;;14.83;4.00;;;3.70;99.90;;;;;;625360;229;26544;-78
2022/01/20 04:19:32;;;;;;;13.20;3.33;;;3.50;99.90;;;;;;634911;224;26600;-78
2022/01/20 04:21:58;;;;;;;16.10;3.47;;;3.30;99.90;;;;;;636634;225;26671;-78
2022/01/20 04:24:25;;;;;;;14.80;3.70;;;3.40;99.90;;;;;;628676;226;26597;-77
2022/01/20 04:26:52;;;;;;;15.53;4.00;;;3.30;99.90;;;;;;629711;228;26857;-78
2022/01/20 04:29:19;;;;;;;20.47;4.03;;;2.80;99.90;;;;;;629458;223;26573;-69
2022/01/20 04:31:48;;;;;;;7.33;2.80;;;2.00;99.90;;;;;;627874;228;26834;-69
2022/01/20 04:34:15;;;;;;;16.80;3.07;;;1.30;99.90;;;;;;631792;226;26571;-69
2022/01/20 04:36:45;;;;;;;9.13;2.73;;;1.10;99.90;;;;;;631586;225;26601;-69
2022/01/20 04:39:12;;;;;;;10.83;2.83;;;0.90;99.90;;;;;;634715;225;26600;-69
2022/01/20 04:41:38;;;;;;;10.43;2.87;;;0.90;99.90;;;;;;631532;225;26883;-69
2022/01/20 04:44:11;;;;;;;16.67;3.60;;;0.80;99.90;;;;;;630915;225;26594;-69
2022/01/20 04:46:42;;;;;;;10.70;2.57;;;0.80;99.90;;;;;;627550;226;26585;-69
2022/01/20 04:57:03;;;;;;;10.83;2.80;;;0.70;99.90;;;;;;631154;225;26589;-69
2022/01/20 04:57:06;;;;;;;14.53;3.10;;;0.60;99.90;;;;;;633416;226;26597;-72
2022/01/20 04:59:13;;;;;;;12.37;3.83;;;0.60;99.90;;;;;;630373;225;26629;-72
2022/01/20 05:01:45;;;;;;;11.40;2.73;;;0.60;99.90;;;;;;629385;225;26843;-72
2022/01/20 05:04:08;;;;;;;9.77;2.93;;;0.60;99.90;;;;;;634827;226;26592;-72
2022/01/20 05:06:38;;;;;;;11.87;2.83;;;0.70;99.90;;;;;;631258;226;27245;-72
2022/01/20 05:09:03;;;;;;;10.17;2.50;;;0.80;99.90;;;;;;625863;226;26559;-72
2022/01/20 05:11:33;;;;;;;9.10;2.70;;;0.90;99.90;;;;;;626849;225;26573;-74
2022/01/20 05:13:58;;;;;;;9.37;2.80;;;0.90;99.90;;;;;;630565;225;26604;-71
2022/01/20 05:16:25;;;;;;;10.47;2.70;;;0.90;99.90;;;;;;631254;225;26619;-71
2022/01/20 05:18:53;;;;;;;7.70;2.90;;;0.90;99.90;;;;;;631411;225;27251;-74
2022/01/20 05:21:20;;;;;;;5.73;2.63;;;1.00;99.90;;;;;;632319;225;26628;-74
2022/01/20 05:23:47;;;;;;;8.47;3.13;;;1.10;99.90;;;;;;635163;226;27232;-74
2022/01/20 05:26:15;;;;;;;5.83;2.47;;;1.10;99.90;;;;;;635121;226;26536;-75
2022/01/20 05:28:43;;;;;;;5.43;2.57;;;1.00;99.90;;;;;;635193;226;26552;-75
2022/01/20 05:31:11;;;;;;;8.57;3.00;;;1.00;99.90;;;;;;631649;225;26620;-75
2022/01/20 05:33:38;;;;;;;7.87;2.67;;;1.00;99.90;;;;;;631054;225;26823;-75
2022/01/20 05:36:05;;;;;;;12.20;2.77;;;1.00;99.90;;;;;;628379;225;26576;-75
2022/01/20 05:38:33;;;;;;;10.17;2.80;;;1.00;99.90;;;;;;631126;226;26804;-75
2022/01/20 05:41:00;;;;;;;7.80;3.17;;;1.00;99.90;;;;;;628705;226;26573;-74
2022/01/20 05:43:27;;;;;;;10.17;3.23;;;1.00;99.90;;;;;;630357;225;26820;-73
2022/01/20 05:45:54;;;;;;;2.60;2.33;;;0.90;99.90;;;;;;635317;225;26597;-73
2022/01/20 05:48:32;;;;;;;6.43;2.77;;;1.00;99.90;;;;;;638575;225;26545;-74
2022/01/20 05:50:49;;;;;;;5.20;2.10;;;1.20;99.90;;;;;;628372;225;26608;-74
2022/01/20 05:53:17;;;;;;;10.10;2.87;;;1.20;99.90;;;;;;625796;230;26825;-74
2022/01/20 05:55:44;;;;;;;9.83;3.00;;;1.20;99.90;;;;;;626938;225;26580;-73
2022/01/20 05:58:11;;;;;;;7.97;2.30;;;1.30;99.90;;;;;;634231;226;26907;-73
2022/01/20 06:00:38;;;;;;;7.40;2.50;;;1.30;99.90;;;;;;628812;228;26559;-73
2022/01/20 06:05:38;;;;;;;4.63;2.67;;;1.40;99.90;;;;;;629492;222;26591;-76
2022/01/20 06:08:06;;;;;;;9.63;2.73;;;1.50;99.90;;;;;;626500;226;26550;-74
2022/01/20 06:10:33;;;;;;;5.90;3.10;;;1.50;99.90;;;;;;633281;226;26617;-74
2022/01/20 06:13:00;;;;;;;12.57;2.80;;;1.60;99.90;;;;;;635115;226;26790;-73
2022/01/20 06:15:28;;;;;;;8.00;2.87;;;1.60;99.90;;;;;;635172;226;26528;-74
2022/01/20 06:17:55;;;;;;;4.30;2.47;;;1.60;99.90;;;;;;635104;222;26544;-74
2022/01/20 06:20:22;;;;;;;9.80;2.93;;;1.60;99.90;;;;;;635138;226;26770;-74
2022/01/20 06:22:50;;;;;;;10.77;2.47;;;1.40;99.90;;;;;;635146;226;26521;-74
2022/01/20 06:25:18;;;;;;;6.20;2.43;;;1.30;99.90;;;;;;635135;226;26592;-73
2022/01/20 06:27:45;;;;;;;10.87;3.80;;;1.20;99.90;;;;;;635122;226;26528;-74
2022/01/20 06:30:13;;;;;;;6.47;2.90;;;1.10;99.90;;;;;;635126;226;26529;-73
2022/01/20 06:32:40;;;;;;;4.47;2.50;;;1.00;99.90;;;;;;635126;226;26774;-74
2022/01/20 06:35:08;;;;;;;6.93;2.97;;;0.90;99.90;;;;;;635173;226;26531;-74
2022/01/20 06:37:35;;;;;;;4.93;2.57;;;0.90;99.90;;;;;;635334;226;26536;-73
2022/01/20 06:40:02;;;;;;;5.90;2.50;;;0.90;99.90;;;;;;635276;226;27183;-73
2022/01/20 06:42:29;;;;;;;5.07;2.87;;;0.90;99.90;;;;;;636110;224;26610;-74
2022/01/20 06:44:57;;;;;;;7.67;2.90;;;0.90;99.90;;;;;;637182;225;26564;-74
2022/01/20 06:47:25;;;;;;;6.30;2.77;;;0.90;99.90;;;;;;636766;226;26794;-74
2022/01/20 06:49:52;;;;;;;5.47;2.90;;;0.80;99.90;;;;;;636550;226;26549;-74
2022/01/20 06:52:19;;;;;;;8.30;2.67;;;0.90;99.90;;;;;;636413;226;26889;-74
2022/01/20 06:54:47;;;;;;;8.27;3.10;;;0.80;99.90;;;;;;636259;226;26553;-74
2022/01/20 06:57:14;;;;;;;8.87;4.13;;;0.70;99.90;;;;;;636267;226;26570;-74
2022/01/20 06:59:41;;;;;;;13.33;3.20;;;0.90;99.90;;;;;;636251;226;26559;-74
2022/01/20 07:02:08;;;;;;;8.10;3.07;;;0.90;99.90;;;;;;635918;226;26805;-74
2022/01/20 07:04:37;;;;;;;5.83;2.97;;;1.10;99.90;;;;;;635452;226;26556;-74
2022/01/20 07:07:03;;;;;;;4.43;2.20;;;1.10;99.90;;;;;;635433;226;26545;-74
2022/01/20 07:09:31;;;;;;;6.87;2.50;;;1.10;99.90;;;;;;633072;226;26627;-74
2022/01/20 07:11:57;;;;;;;7.27;2.37;;;1.30;99.90;;;;;;629400;225;26834;-74
2022/01/20 07:14:25;;;;;;;7.30;2.63;;;1.30;99.90;;;;;;629794;225;26622;-74
2022/01/20 07:16:53;;;;;;;4.43;2.30;;;1.30;99.90;;;;;;630385;225;27342;-74
2022/01/20 07:19:20;;;;;;;4.77;2.60;;;1.20;99.90;;;;;;629940;225;26587;-74
2022/01/20 07:21:48;;;;;;;6.07;2.60;;;1.00;99.90;;;;;;629190;225;26654;-73
2022/01/20 07:24:15;;;;;;;6.90;2.67;;;1.00;99.90;;;;;;627388;225;26787;-76
2022/01/20 07:26:42;;;;;;;4.73;2.20;;;1.00;99.90;;;;;;627244;226;26594;-76
2022/01/20 07:29:09;;;;;;;8.30;2.63;;;0.60;99.90;;;;;;626093;226;26795;-74
2022/01/20 07:31:37;;;;;;;4.30;2.20;;;0.20;99.90;;;;;;632752;225;26636;-73
2022/01/20 07:34:05;;;;;;;3.70;3.00;;;0.10;99.90;;;;;;629417;226;26588;-73
2022/01/20 07:36:32;;;;;;;2.63;2.40;;;0.10;99.90;;;;;;629996;226;26901;-73
2022/01/20 07:39:00;;;;;;;5.60;2.40;;;0.20;99.90;;;;;;631872;225;26594;-73
2022/01/20 07:41:27;;;;;;;8.30;2.53;;;0.30;99.90;;;;;;629985;225;26817;-74
2022/01/20 07:43:55;;;;;;;8.47;2.90;;;0.00;99.90;;;;;;628041;226;26580;-73
2022/01/20 07:46:23;;;;;;;9.70;3.10;;;0.10;99.90;;;;;;629105;226;26610;-72
2022/01/20 07:48:50;;;;;;;7.10;2.87;;;0.10;99.90;;;;;;629571;226;26935;-73
2022/01/20 07:51:17;;;;;;;6.13;2.93;;;0.10;99.90;;;;;;629708;225;26620;-74
2022/01/20 07:53:44;;;;;;;8.30;2.63;;;0.20;99.90;;;;;;628354;225;27241;-73
2022/01/20 07:56:12;;;;;;;6.37;3.40;;;0.20;99.90;;;;;;630590;226;26534;-73
2022/01/20 07:58:40;;;;;;;10.10;3.53;;;0.20;99.90;;;;;;630020;225;26616;-73
2022/01/20 08:01:07;;;;;;;4.50;2.80;;;0.20;99.90;;;;;;628744;226;26642;-74
2022/01/20 08:03:35;;;;;;;8.43;2.60;;;0.30;99.90;;;;;;628962;226;26589;-72
2022/01/20 08:06:02;;;;;;;13.70;3.10;;;0.40;99.90;;;;;;629660;226;26854;-71
2022/01/20 08:08:29;;;;;;;7.67;2.67;;;0.50;99.90;;;;;;631396;225;26602;-71
2022/01/20 08:10:56;;;;;;;15.53;3.33;;;0.60;99.90;;;;;;631388;225;26665;-71
2022/01/20 08:13:24;;;;;;;7.93;2.97;;;0.70;99.90;;;;;;632341;225;26572;-71
2022/01/20 08:15:52;;;;;;;5.97;3.40;;;0.80;99.90;;;;;;630944;225;26599;-72
2022/01/20 08:18:19;;;;;;;8.03;3.30;;;0.80;99.90;;;;;;627994;226;26828;-71
2022/01/20 08:20:47;;;;;;;8.70;3.17;;;0.90;99.90;;;;;;628325;226;26597;-71
2022/01/20 08:23:15;;;;;;;10.73;3.47;;;1.10;99.90;;;;;;630725;223;26894;-71
2022/01/20 08:25:42;;;;;;;10.07;3.47;;;1.20;99.90;;;;;;630829;225;26595;-71
2022/01/20 08:28:10;;;;;;;7.73;3.00;;;1.20;99.90;;;;;;630635;225;26587;-71
2022/01/20 08:30:38;;;;;;;9.00;2.90;;;1.20;99.90;;;;;;630712;225;26635;-71
2022/01/20 08:33:05;;;;;;;9.27;3.07;;;1.20;99.90;;;;;;630408;221;26968;-72
2022/01/20 08:35:32;;;;;;;10.30;3.57;;;1.20;99.90;;;;;;627593;225;26610;-72
2022/01/20 08:38:00;;;;;;;7.20;2.70;;;1.10;99.90;;;;;;628823;225;26806;-73
2022/01/20 08:40:27;;;;;;;6.27;2.63;;;1.00;99.90;;;;;;630357;225;26558;-74
2022/01/20 08:42:55;;;;;;;10.60;3.00;;;1.10;99.90;;;;;;630708;225;26572;-71
2022/01/20 08:45:23;;;;;;;7.67;3.73;;;1.10;99.90;;;;;;632315;225;26799;-71
2022/01/20 08:47:52;;;;;;;9.80;3.77;;;1.00;99.90;;;;;;629706;226;26907;-71
2022/01/20 08:50:18;;;;;;;11.77;3.47;;;1.10;99.90;;;;;;629239;226;26623;-72
2022/01/20 08:52:45;;;;;;;7.03;3.07;;;1.10;99.90;;;;;;627772;225;26583;-71
2022/01/20 08:55:13;;;;;;;9.87;3.07;;;1.20;99.90;;;;;;630442;225;26576;-71
2022/01/20 08:57:40;;;;;;;10.37;3.10;;;1.20;99.90;;;;;;627820;225;26643;-71
2022/01/20 09:00:08;;;;;;;8.83;3.20;;;1.30;99.90;;;;;;630087;225;26622;-71
2022/01/20 09:02:36;;;;;;;5.20;3.20;;;1.40;99.90;;;;;;636760;225;26537;-71
2022/01/20 09:05:02;;;;;;;8.83;2.90;;;1.60;99.90;;;;;;629193;226;26778;-71
2022/01/20 09:07:29;;;;;;;7.07;2.87;;;1.70;99.90;;;;;;634908;226;26597;-71
2022/01/20 09:09:59;;;;;;;9.17;3.63;;;1.80;99.90;;;;;;627216;226;26821;-73
2022/01/20 09:17:30;;;;;;;11.77;3.37;;;2.00;99.90;;;;;;626706;228;26557;-72
2022/01/20 09:19:58;;;;;;;10.43;3.40;;;2.00;99.90;;;;;;627576;228;26542;-71
2022/01/20 09:22:27;;;;;;;13.03;3.50;;;2.00;99.90;;;;;;628058;228;26621;-72
2022/01/20 09:24:52;;;;;;;14.27;3.80;;;1.90;99.90;;;;;;627361;227;26586;-71
2022/01/20 09:27:20;;;;;;;8.27;3.10;;;1.90;99.90;;;;;;633669;226;26952;-71
2022/01/20 09:29:47;;;;;;;12.80;2.93;;;2.00;99.90;;;;;;626118;226;26590;-72
2022/01/20 09:32:16;;;;;;;9.63;4.17;;;2.10;99.90;;;;;;628087;223;26795;-71
2022/01/20 09:34:42;;;;;;;7.93;3.27;;;2.20;99.90;;;;;;627051;228;26598;-71
2022/01/20 09:37:10;;;;;;;10.47;3.60;;;2.10;99.90;;;;;;630368;225;26607;-71
2022/01/20 09:39:38;;;;;;;8.70;3.40;;;2.10;99.90;;;;;;628414;228;26797;-72
2022/01/20 09:42:05;;;;;;;14.97;3.40;;;2.20;99.90;;;;;;625454;229;26586;-72
2022/01/20 09:44:32;;;;;;;13.13;3.50;;;2.10;99.90;;;;;;626754;229;26532;-72
2022/01/20 09:46:59;;;;;;;16.47;3.33;;;2.10;99.90;;;;;;625468;228;26896;-72
2022/01/20 09:49:27;;;;;;;9.63;3.43;;;2.30;99.90;;;;;;625321;228;26545;-72
2022/01/20 09:51:55;;;;;;;9.43;3.77;;;2.40;99.90;;;;;;628683;226;26742;-72
2022/01/20 09:54:22;;;;;;;13.57;3.10;;;2.40;99.90;;;;;;627678;223;26635;-72
2022/01/20 09:56:50;;;;;;;15.47;4.10;;;2.50;99.90;;;;;;630547;226;26569;-72
2022/01/20 09:59:17;;;;;;;14.73;4.67;;;2.50;99.90;;;;;;635200;226;27237;-72
2022/01/20 10:01:44;;;;;;;13.20;3.80;;;2.30;99.90;;;;;;637507;225;26563;-72
2022/01/20 10:04:20;;;;;;;14.63;3.70;;;2.30;99.90;;;;;;633558;226;26813;-72
2022/01/20 10:06:56;;;;;;;12.13;4.57;;;2.40;99.90;;;;;;627074;229;26554;-72
2022/01/20 10:09:29;;;;;;;14.60;3.37;;;2.40;99.90;;;;;;627871;228;26603;-72
2022/01/20 10:11:56;;;;;;;10.97;3.97;;;2.50;99.90;;;;;;631048;225;26618;-72
2022/01/20 10:14:23;;;;;;;8.90;3.70;;;2.70;99.90;;;;;;628261;226;26595;-72
2022/01/20 10:16:51;;;;;;;19.87;4.83;;;2.40;99.90;;;;;;628873;226;26590;-73
2022/01/20 10:19:22;;;;;;;10.57;3.40;;;2.40;99.90;;;;;;627898;227;26603;-73
2022/01/20 10:21:49;;;;;;;15.17;3.63;;;2.40;99.90;;;;;;629556;228;26566;-73
2022/01/20 10:24:17;;;;;;;9.73;3.10;;;2.50;99.90;;;;;;628459;226;26538;-73
2022/01/20 10:26:46;;;;;;;11.47;3.43;;;2.50;99.90;;;;;;629300;223;26808;-73
2022/01/20 10:29:15;;;;;;;8.70;2.97;;;2.40;99.90;;;;;;633867;226;26599;-73
2022/01/20 10:31:43;;;;;;;12.33;3.17;;;2.40;99.90;;;;;;630254;225;26576;-72
2022/01/20 10:34:18;;;;;;;6.73;3.07;;;2.50;99.90;;;;;;633629;226;26561;-72
2022/01/20 10:36:50;;;;;;;10.20;3.90;;;2.60;99.90;;;;;;627800;228;26797;-73
2022/01/20 10:39:14;;;;;;;13.77;4.00;;;2.70;99.90;;;;;;627606;226;26543;-72
2022/01/20 10:41:42;;;;;;;9.27;3.27;;;2.70;99.90;;;;;;626176;226;26890;-73
2022/01/20 10:44:09;;;;;;;11.77;3.53;;;2.70;99.90;;;;;;628533;228;26564;-72
2022/01/20 10:46:42;;;;;;;17.10;4.07;;;2.80;99.90;;;;;;628030;226;26801;-73
2022/01/20 10:49:09;;;;;;;14.27;3.87;;;2.70;99.90;;;;;;635759;226;26582;-72
2022/01/20 10:51:36;;;;;;;9.07;3.47;;;2.80;99.90;;;;;;627302;226;26609;-72
2022/01/20 10:54:04;;;;;;;8.23;3.77;;;2.60;99.90;;;;;;633201;226;26584;-72
2022/01/20 10:56:32;;;;;;;9.53;3.67;;;2.40;99.90;;;;;;625280;229;26534;-71
2022/01/20 10:59:05;;;;;;;12.80;3.20;;;2.30;99.90;;;;;;627211;229;26785;-71
2022/01/20 11:01:32;;;;;;;12.63;3.60;;;2.30;99.90;;;;;;634028;226;26837;-72
2022/01/20 11:04:00;;;;;;;11.93;3.27;;;2.40;99.90;;;;;;630775;225;26536;-72
2022/01/20 11:06:27;;;;;;;12.57;3.50;;;2.40;99.90;;;;;;627617;228;26814;-73
2022/01/20 11:08:55;;;;;;;11.87;2.60;;;2.60;99.90;;;;;;627219;229;26549;-73
2022/01/20 11:11:23;;;;;;;10.93;3.30;;;2.60;99.90;;;;;;626253;228;26579;-73
2022/01/20 11:13:51;;;;;;;12.70;4.60;;;2.60;99.90;;;;;;628134;229;27231;-73
2022/01/20 11:16:21;;;;;;;14.13;3.90;;;2.60;99.90;;;;;;628300;226;26915;-73
2022/01/20 11:18:47;;;;;;;19.43;3.83;;;2.50;99.90;;;;;;630209;221;26587;-73
2022/01/20 11:21:22;;;;;;;13.13;3.17;;;2.60;99.90;;;;;;627625;228;26635;-73
2022/01/20 11:23:49;;;;;;;13.00;3.20;;;2.60;99.90;;;;;;628525;226;26599;-72
2022/01/20 11:26:18;;;;;;;14.07;4.13;;;2.70;99.90;;;;;;626321;229;26613;-73
2022/01/20 11:28:57;;;;;;;13.17;3.53;;;2.60;99.90;;;;;;627557;227;26578;-72
2022/01/20 11:31:28;;;;;;;9.40;3.23;;;2.70;99.90;;;;;;629337;228;26584;-73
2022/01/20 11:33:55;;;;;;;17.47;3.73;;;2.90;99.90;;;;;;629238;227;27185;-73
2022/01/20 11:36:23;;;;;;;14.87;3.73;;;3.00;99.90;;;;;;626301;228;26537;-72
2022/01/20 11:38:54;;;;;;;4.20;3.37;;;3.30;99.90;;;;;;630803;226;26588;-72
2022/01/20 11:41:18;;;;;;;14.27;3.67;;;3.30;99.90;;;;;;628509;226;27516;-73
2022/01/20 11:43:47;;;;;;;37.17;5.53;;;3.40;99.90;;;;;;626217;227;26566;-73
2022/01/20 11:46:15;;;;;;;8.67;3.33;;;3.30;99.90;;;;;;628270;226;26558;-77
2022/01/20 11:48:49;;;;;;;12.90;3.13;;;3.50;99.90;;;;;;627243;227;27240;-74
2022/01/20 11:51:18;;;;;;;11.00;3.47;;;3.40;99.90;;;;;;631852;226;27260;-71
2022/01/20 11:53:53;;;;;;;7.40;3.20;;;3.70;99.90;;;;;;631412;226;26581;-73
2022/01/20 11:56:20;;;;;;;9.43;3.40;;;3.60;99.80;;;;;;635409;226;26827;-72
2022/01/20 11:58:49;;;;;;;10.73;3.13;;;3.50;99.40;;;;;;634993;226;26834;-73
2022/01/20 12:01:17;;;;;;;10.57;2.90;;;3.50;99.10;;;;;;635446;226;26638;-73
2022/01/20 12:03:50;;;;;;;11.90;3.23;;;3.40;98.90;;;;;;631392;226;26865;-76
2022/01/20 12:06:23;;;;;;;10.10;3.77;;;3.40;98.90;;;;;;632689;225;26544;-70
2022/01/20 12:08:51;;;;;;;5.87;3.20;;;3.40;99.00;;;;;;625015;229;26550;-69
2022/01/20 12:11:19;;;;;;;10.73;3.60;;;3.40;99.00;;;;;;628156;228;26603;-70
2022/01/20 12:13:46;;;;;;;6.13;2.97;;;3.50;99.10;;;;;;628707;228;26574;-69
2022/01/20 12:16:18;;;;;;;8.40;3.00;;;3.70;98.50;;;;;;628623;229;26571;-70
2022/01/20 12:18:50;;;;;;;7.60;3.10;;;3.60;98.50;;;;;;628723;229;26597;-70
2022/01/20 12:21:17;;;;;;;7.43;3.47;;;3.80;98.00;;;;;;628684;228;26629;-69
2022/01/20 12:23:45;;;;;;;8.93;2.87;;;4.10;97.70;;;;;;625445;229;26554;-70
2022/01/20 12:26:12;;;;;;;7.90;3.27;;;4.00;97.10;;;;;;625390;228;26541;-69
2022/01/20 12:28:39;;;;;;;14.40;3.37;;;3.90;97.00;;;;;;626525;228;26811;-70
2022/01/20 12:31:08;;;;;;;9.60;2.77;;;3.90;97.50;;;;;;625427;228;26567;-70
2022/01/20 12:33:35;;;;;;;11.27;3.80;;;3.80;97.20;;;;;;625361;229;26538;-69
2022/01/20 12:36:03;;;;;;;6.37;2.60;;;3.50;97.40;;;;;;625358;229;26561;-70
2022/01/20 12:38:30;;;;;;;10.27;2.97;;;3.40;97.80;;;;;;626333;228;26553;-69
2022/01/20 12:40:59;;;;;;;6.60;2.67;;;3.40;97.80;;;;;;629474;226;26608;-69
2022/01/20 12:43:35;;;;;;;8.90;2.77;;;3.30;96.90;;;;;;629849;228;26555;-70
2022/01/20 12:46:02;;;;;;;13.40;3.23;;;3.20;96.70;;;;;;627475;228;26555;-69
2022/01/20 12:48:30;;;;;;;8.63;2.70;;;3.10;97.50;;;;;;626189;228;26545;-69
2022/01/20 12:50:59;;;;;;;6.97;2.93;;;3.00;97.40;;;;;;625983;228;26659;-69
2022/01/20 12:53:32;;;;;;;13.43;2.97;;;2.90;97.80;;;;;;625977;227;26530;-69
2022/01/20 12:55:59;;;;;;;10.70;3.63;;;2.90;97.80;;;;;;625988;228;26844;-69
2022/01/20 12:58:27;;;;;;;10.73;3.40;;;2.90;98.10;;;;;;626630;228;26579;-70
2022/01/20 13:00:58;;;;;;;11.57;3.10;;;3.00;98.40;;;;;;629056;228;26538;-69
2022/01/20 13:03:33;;;;;;;8.73;3.27;;;3.00;98.20;;;;;;629497;226;26652;-70
2022/01/20 13:06:00;;;;;;;4.40;2.70;;;3.00;98.00;;;;;;635509;226;26837;-69
2022/01/20 13:08:32;;;;;;;11.00;3.03;;;3.10;97.90;;;;;;635489;226;26610;-69
2022/01/20 13:11:13;;;;;;;9.57;3.53;;;3.30;98.10;;;;;;635225;226;27189;-69
2022/01/20 13:13:37;;;;;;;13.03;3.13;;;3.30;98.10;;;;;;635252;226;26765;-69
2022/01/20 13:16:10;;;;;;;9.63;3.00;;;3.10;98.60;;;;;;635376;226;26592;-69
2022/01/20 13:18:38;;;;;;;9.13;3.47;;;3.10;98.50;;;;;;635100;226;26556;-69
2022/01/20 13:21:07;;;;;;;8.37;3.73;;;3.10;98.50;;;;;;635161;226;26552;-69
2022/01/20 13:26:13;;;;;;;9.90;3.30;;;3.10;97.70;;;;;;627216;225;26587;-69
2022/01/20 13:28:40;;;;;;;6.30;3.00;;;3.00;97.40;;;;;;629682;225;26903;-69
2022/01/20 13:31:14;;;;;;;10.07;2.70;;;3.00;97.30;;;;;;629400;226;26599;-70
2022/01/20 13:33:41;;;;;;;5.70;2.97;;;3.00;97.60;;;;;;626408;225;26623;-69
2022/01/20 13:36:09;;;;;;;5.93;2.80;;;3.00;97.40;;;;;;629928;226;26804;-70
2022/01/20 13:38:38;;;;;;;14.57;3.00;;;2.90;97.40;;;;;;632361;226;26568;-70
2022/01/20 13:41:07;;;;;;;7.37;3.10;;;3.00;97.30;;;;;;628955;226;26607;-70
2022/01/20 13:46:06;;;;;;;5.60;2.93;;;2.70;98.20;;;;;;630178;225;26567;-70
2022/01/20 13:48:33;;;;;;;7.83;2.87;;;2.70;98.00;;;;;;625412;228;26785;-71